createdAt,value
2022-10-08T00:01:32.261Z,12.40
2022-10-08T00:04:03.443Z,11.80
2022-10-08T00:06:33.202Z,13.18
2022-10-08T00:09:03.372Z,11.48
2022-10-08T00:11:33.614Z,12.73
2022-10-08T00:14:02.511Z,10.25
2022-10-08T00:16:32.820Z,10.52
2022-10-08T00:19:04.009Z,10.93
2022-10-08T00:21:33.905Z,14.90
2022-10-08T00:24:03.266Z,13.07
2022-10-08T00:26:34.180Z,13.10
2022-10-08T00:29:04.533Z,13.23
2022-10-08T00:31:34.450Z,12.65
2022-10-08T00:34:06.356Z,13.25
2022-10-08T00:36:37.252Z,11.90
2022-10-08T00:39:08.663Z,12.18
2022-10-08T00:41:39.405Z,12.63
2022-10-08T00:44:40.706Z,10.65
2022-10-08T00:47:17.445Z,14.88
2022-10-08T00:49:49.148Z,11.32
2022-10-08T00:52:18.393Z,10.02
2022-10-08T00:54:50.265Z,16.48
2022-10-08T00:57:19.186Z,12.55
2022-10-08T00:59:47.388Z,11.95
2022-10-08T01:02:16.587Z,10.93
2022-10-08T01:04:47.909Z,15.38
2022-10-08T01:07:21.680Z,11.65
2022-10-08T01:09:57.464Z,11.38
2022-10-08T01:12:37.343Z,9.20
2022-10-08T01:15:13.862Z,12.43
2022-10-08T01:17:51.121Z,13.85
2022-10-08T01:20:37.273Z,17.45
2022-10-08T01:23:49.585Z,13.00
2022-10-08T01:26:34.191Z,15.88
2022-10-08T01:29:10.058Z,14.98
2022-10-08T01:31:44.815Z,12.45
2022-10-08T01:34:24.964Z,15.32
2022-10-08T01:36:56.042Z,12.27
2022-10-08T01:39:28.312Z,16.58
2022-10-08T01:41:57.518Z,11.38
2022-10-08T01:44:30.966Z,13.93
2022-10-08T01:47:01.185Z,11.02
2022-10-08T01:49:34.943Z,12.85
2022-10-08T01:52:07.924Z,12.45
2022-10-08T01:54:38.840Z,12.48
2022-10-08T01:57:10.393Z,11.15
2022-10-08T01:59:44.122Z,11.88
2022-10-08T02:02:18.559Z,13.23
2022-10-08T02:04:47.186Z,11.55
2022-10-08T02:07:18.862Z,12.77
2022-10-08T02:09:51.436Z,14.85
2022-10-08T02:12:20.484Z,12.93
2022-10-08T02:14:53.713Z,15.70
2022-10-08T02:17:35.796Z,13.38
2022-10-08T02:20:12.383Z,18.73
2022-10-08T02:22:45.968Z,14.75
2022-10-08T02:25:20.309Z,13.18
2022-10-08T02:27:56.650Z,12.80
2022-10-08T02:30:27.528Z,16.17
2022-10-08T02:33:01.985Z,16.17
2022-10-08T02:35:37.122Z,14.27
2022-10-08T02:38:10.651Z,15.25
2022-10-08T02:40:42.734Z,12.45
2022-10-08T02:43:20.809Z,15.45
2022-10-08T02:45:55.932Z,14.63
2022-10-08T02:48:31.346Z,17.00
2022-10-08T02:51:06.425Z,15.00
2022-10-08T02:53:37.922Z,14.30
2022-10-08T02:56:13.510Z,15.07
2022-10-08T02:58:45.928Z,12.70
2022-10-08T03:01:26.558Z,13.90
2022-10-08T03:03:59.803Z,13.68
2022-10-08T03:06:30.179Z,13.30
2022-10-08T03:09:01.435Z,13.13
2022-10-08T03:11:31.527Z,10.73
2022-10-08T03:14:03.130Z,16.85
2022-10-08T03:16:39.115Z,14.57
2022-10-08T03:19:10.399Z,13.05
2022-10-08T03:21:40.215Z,13.73
2022-10-08T03:24:08.855Z,11.70
2022-10-08T03:26:37.762Z,11.23
2022-10-08T03:29:06.707Z,14.27
2022-10-08T03:31:36.466Z,13.23
2022-10-08T03:34:04.828Z,14.90
2022-10-08T03:36:32.938Z,13.02
2022-10-08T03:39:01.029Z,12.85
2022-10-08T03:41:31.325Z,14.07
2022-10-08T03:44:01.958Z,12.13
2022-10-08T03:46:30.061Z,11.57
2022-10-08T03:48:59.481Z,13.65
2022-10-08T03:51:27.664Z,11.93
2022-10-08T03:53:55.632Z,10.27
2022-10-08T03:56:25.374Z,11.15
2022-10-08T03:58:55.453Z,13.48
2022-10-08T04:01:24.723Z,12.70
2022-10-08T04:03:52.783Z,12.98
2022-10-08T04:06:22.759Z,13.18
2022-10-08T04:08:50.848Z,13.15
2022-10-08T04:11:21.614Z,11.35
2022-10-08T04:13:49.669Z,15.48
2022-10-08T04:16:19.182Z,12.40
2022-10-08T04:18:48.176Z,12.43
2022-10-08T04:21:18.539Z,12.38
2022-10-08T04:23:49.674Z,14.70
2022-10-08T04:26:18.569Z,11.57
2022-10-08T04:28:48.282Z,11.98
2022-10-08T04:31:19.027Z,14.18
2022-10-08T04:33:47.955Z,12.07
2022-10-08T04:36:18.503Z,12.45
2022-10-08T04:38:48.697Z,12.93
2022-10-08T04:41:22.452Z,13.63
2022-10-08T04:43:51.508Z,11.27
2022-10-08T04:46:21.489Z,11.55
2022-10-08T04:48:51.679Z,11.20
2022-10-08T04:51:21.253Z,12.90
2022-10-08T04:53:51.132Z,10.43
2022-10-08T04:56:21.175Z,15.23
2022-10-08T04:58:50.046Z,14.02
2022-10-08T05:01:20.302Z,14.52
2022-10-08T05:03:50.368Z,14.88
2022-10-08T05:06:21.693Z,14.07
2022-10-08T05:08:51.767Z,15.85
2022-10-08T05:11:20.865Z,14.50
2022-10-08T05:13:51.187Z,15.60
2022-10-08T05:16:20.387Z,15.18
2022-10-08T05:18:50.777Z,14.35
2022-10-08T05:21:21.143Z,14.30
2022-10-08T05:23:55.818Z,12.38
2022-10-08T05:26:41.400Z,15.93
2022-10-08T05:29:13.865Z,14.27
2022-10-08T05:31:43.874Z,13.07
2022-10-08T05:34:13.310Z,15.70
2022-10-08T05:36:41.770Z,15.80
2022-10-08T05:39:11.819Z,15.02
2022-10-08T05:41:40.002Z,14.88
2022-10-08T05:44:09.793Z,12.80
2022-10-08T05:46:39.517Z,13.95
2022-10-08T05:49:09.658Z,12.52
2022-10-08T05:51:38.668Z,16.90
2022-10-08T05:54:06.810Z,14.27
2022-10-08T05:56:36.278Z,14.15
2022-10-08T05:59:04.344Z,14.10
2022-10-08T06:01:34.079Z,13.65
2022-10-08T06:04:08.542Z,21.02
2022-10-08T06:06:37.752Z,14.77
2022-10-08T06:09:07.351Z,13.38
2022-10-08T06:11:38.751Z,14.00
2022-10-08T06:14:08.269Z,15.02
2022-10-08T06:16:36.961Z,13.20
2022-10-08T06:19:07.265Z,13.77
2022-10-08T06:21:36.232Z,14.52
2022-10-08T06:24:05.995Z,17.80
2022-10-08T06:26:37.736Z,15.80
2022-10-08T06:29:06.751Z,16.27
2022-10-08T06:31:35.675Z,17.42
2022-10-08T06:34:04.914Z,14.45
2022-10-08T06:36:34.072Z,19.83
2022-10-08T06:39:07.633Z,14.23
2022-10-08T06:41:37.367Z,16.30
2022-10-08T06:44:07.319Z,14.40
2022-10-08T06:46:36.293Z,17.75
2022-10-08T06:49:06.174Z,16.90
2022-10-08T06:51:34.886Z,17.70
2022-10-08T06:54:07.367Z,21.02
2022-10-08T06:56:38.644Z,15.57
2022-10-08T06:59:07.486Z,21.58
2022-10-08T07:01:36.336Z,19.08
2022-10-08T07:04:07.010Z,13.85
2022-10-08T07:06:35.580Z,14.90
2022-10-08T07:09:05.127Z,14.73
2022-10-08T07:11:33.821Z,16.70
2022-10-08T07:14:05.562Z,17.63
2022-10-08T07:16:33.706Z,16.92
2022-10-08T07:19:01.858Z,15.00
2022-10-08T07:21:30.551Z,16.63
2022-10-08T07:24:00.826Z,16.25
2022-10-08T07:26:30.758Z,17.05
2022-10-08T07:29:00.751Z,17.73
2022-10-08T07:31:32.221Z,15.35
2022-10-08T07:34:01.710Z,14.80
2022-10-08T07:36:30.574Z,18.92
2022-10-08T07:39:00.013Z,13.75
2022-10-08T07:41:29.058Z,13.75
2022-10-08T07:43:59.778Z,16.55
2022-10-08T07:46:28.876Z,12.32
2022-10-08T07:48:59.228Z,12.93
2022-10-08T07:51:28.335Z,12.98
2022-10-08T07:54:00.251Z,11.38
2022-10-08T07:56:30.689Z,15.25
2022-10-08T07:58:59.827Z,12.45
2022-10-08T08:01:29.856Z,10.30
2022-10-08T08:04:03.738Z,10.85
2022-10-08T08:06:33.710Z,11.95
2022-10-08T08:09:03.036Z,11.80
2022-10-08T08:11:31.382Z,15.13
2022-10-08T08:13:59.523Z,9.20
2022-10-08T08:16:29.289Z,12.27
2022-10-08T08:18:59.134Z,9.45
2022-10-08T08:21:30.589Z,10.30
2022-10-08T08:24:00.237Z,9.05
2022-10-08T08:26:29.898Z,12.93
2022-10-08T08:28:59.813Z,11.02
2022-10-08T08:31:29.253Z,11.00
2022-10-08T08:34:00.186Z,7.78
2022-10-08T08:36:31.305Z,10.88
2022-10-08T08:39:02.541Z,9.45
2022-10-08T08:42:02.502Z,10.63
2022-10-08T08:44:35.501Z,7.30
2022-10-08T08:47:07.382Z,8.93
2022-10-08T08:49:40.974Z,9.85
2022-10-08T08:52:14.296Z,8.40
2022-10-08T08:54:43.369Z,9.25
2022-10-08T08:57:26.554Z,6.90
2022-10-08T08:59:58.111Z,9.15
2022-10-08T09:02:30.580Z,6.93
2022-10-08T09:05:01.799Z,8.40
2022-10-08T09:07:43.978Z,8.95
2022-10-08T09:10:18.319Z,7.75
2022-10-08T09:12:47.045Z,7.53
2022-10-08T09:15:20.551Z,7.38
2022-10-08T09:17:53.127Z,14.07
2022-10-08T09:20:23.604Z,5.80
2022-10-08T09:22:54.939Z,5.35
2022-10-08T09:25:25.025Z,5.72
2022-10-08T09:27:55.826Z,8.25
2022-10-08T09:30:30.034Z,6.63
2022-10-08T09:33:03.422Z,7.45
2022-10-08T09:35:34.400Z,6.90
2022-10-08T09:38:06.274Z,9.15
2022-10-08T09:40:34.514Z,10.30
2022-10-08T09:43:19.195Z,9.20
2022-10-08T09:45:49.243Z,7.03
2022-10-08T09:48:25.259Z,6.55
2022-10-08T09:50:57.921Z,7.40
2022-10-08T09:53:40.115Z,5.82
2022-10-08T09:56:09.700Z,7.10
2022-10-08T09:58:48.967Z,7.18
2022-10-08T10:01:19.143Z,5.40
2022-10-08T10:03:55.010Z,8.77
2022-10-08T10:06:28.672Z,8.88
2022-10-08T10:09:13.638Z,7.60
2022-10-08T10:11:47.987Z,6.20
2022-10-08T10:14:22.488Z,7.05
2022-10-08T10:17:00.118Z,11.38
2022-10-08T10:19:34.013Z,6.30
2022-10-08T10:22:06.278Z,6.28
2022-10-08T10:24:45.802Z,7.22
2022-10-08T10:27:17.931Z,11.00
2022-10-08T10:29:54.402Z,8.27
2022-10-08T10:32:31.790Z,6.65
2022-10-08T10:35:07.181Z,5.63
2022-10-08T10:37:44.449Z,8.40
2022-10-08T10:40:43.766Z,7.97
2022-10-08T10:43:33.774Z,9.55
2022-10-08T10:46:13.826Z,6.15
2022-10-08T10:48:42.101Z,5.90
2022-10-08T10:51:22.305Z,8.80
2022-10-08T10:54:02.896Z,7.10
2022-10-08T10:56:38.328Z,6.40
2022-10-08T10:59:21.296Z,5.93
2022-10-08T11:01:57.004Z,3.55
2022-10-08T11:04:45.559Z,5.28
2022-10-08T11:07:32.029Z,10.48
2022-10-08T11:10:06.568Z,5.28
2022-10-08T11:12:43.346Z,9.48
2022-10-08T11:15:23.779Z,4.47
2022-10-08T11:18:13.569Z,5.28
2022-10-08T11:20:55.832Z,5.60
2022-10-08T11:23:43.417Z,5.57
2022-10-08T11:26:22.886Z,6.43
2022-10-08T11:29:02.175Z,9.27
2022-10-08T11:31:38.955Z,6.82
2022-10-08T11:34:18.489Z,9.60
2022-10-08T11:36:53.473Z,21.77
2022-10-08T11:39:28.103Z,8.57
2022-10-08T11:42:04.043Z,10.68
2022-10-08T11:44:34.028Z,5.88
2022-10-08T11:47:35.503Z,6.65
2022-10-08T11:50:05.836Z,6.18
2022-10-08T11:52:35.674Z,5.13
2022-10-08T11:55:04.749Z,8.68
2022-10-08T11:58:05.980Z,6.75
2022-10-08T12:00:39.500Z,6.95
2022-10-08T12:05:50.937Z,14.30
2022-10-08T12:08:52.839Z,5.45
2022-10-08T12:11:52.186Z,7.35
2022-10-08T12:14:47.518Z,11.10
2022-10-08T12:17:17.859Z,10.30
2022-10-08T12:20:02.912Z,15.32
2022-10-08T12:22:44.688Z,9.95
2022-10-08T12:25:36.611Z,7.83
2022-10-08T12:28:39.770Z,6.60
2022-10-08T12:31:27.010Z,9.57
2022-10-08T12:34:12.871Z,6.93
2022-10-08T12:36:49.611Z,6.95
2022-10-08T12:39:27.490Z,5.32
2022-10-08T12:42:06.784Z,7.82
2022-10-08T12:45:01.102Z,6.78
2022-10-08T12:47:41.765Z,6.25
2022-10-08T12:50:32.186Z,8.05
2022-10-08T12:53:01.359Z,6.15
2022-10-08T12:55:35.605Z,5.68
2022-10-08T12:58:06.360Z,6.88
2022-10-08T13:00:35.999Z,8.38
2022-10-08T13:03:06.077Z,8.40
2022-10-08T13:05:40.310Z,5.18
2022-10-08T13:08:34.953Z,6.68
2022-10-08T13:11:05.390Z,5.05
2022-10-08T13:13:52.064Z,6.43
2022-10-08T13:16:22.872Z,7.97
2022-10-08T13:18:53.667Z,5.65
2022-10-08T13:21:54.540Z,18.83
2022-10-08T13:24:37.641Z,20.42
2022-10-08T13:27:06.719Z,8.35
2022-10-08T13:29:37.477Z,11.98
2022-10-08T13:32:17.582Z,6.68
2022-10-08T13:34:47.833Z,10.27
2022-10-08T13:37:25.486Z,6.60
2022-10-08T13:39:55.440Z,9.35
2022-10-08T13:42:27.122Z,9.38
2022-10-08T13:44:55.413Z,6.78
2022-10-08T13:47:23.845Z,9.60
2022-10-08T13:49:55.484Z,8.65
2022-10-08T13:52:26.293Z,8.43
2022-10-08T13:54:58.911Z,8.13
2022-10-08T13:57:27.177Z,9.13
2022-10-08T13:59:55.224Z,7.90
2022-10-08T14:02:23.325Z,7.78
2022-10-08T14:04:52.872Z,8.65
2022-10-08T14:07:27.208Z,9.35
2022-10-08T14:09:56.662Z,9.20
2022-10-08T14:12:28.708Z,6.57
2022-10-08T14:14:57.431Z,8.25
2022-10-08T14:17:26.231Z,7.97
2022-10-08T14:19:55.591Z,7.95
2022-10-08T14:22:25.134Z,9.38
2022-10-08T14:24:53.790Z,8.43
2022-10-08T14:27:21.785Z,8.27
2022-10-08T14:29:49.785Z,6.70
2022-10-08T14:32:18.102Z,8.23
2022-10-08T14:34:46.341Z,6.93
2022-10-08T14:37:14.669Z,7.78
2022-10-08T14:39:44.103Z,6.82
2022-10-08T14:42:15.163Z,6.72
2022-10-08T14:44:43.251Z,6.00
2022-10-08T14:47:11.258Z,6.90
2022-10-08T14:49:39.383Z,4.97
2022-10-08T14:52:07.478Z,8.00
2022-10-08T14:54:35.548Z,5.70
2022-10-08T14:57:05.339Z,7.82
2022-10-08T14:59:37.561Z,7.32
2022-10-08T15:02:08.047Z,7.00
2022-10-08T15:04:36.126Z,7.05
2022-10-08T15:07:04.666Z,6.53
2022-10-08T15:09:32.716Z,6.55
2022-10-08T15:12:05.233Z,5.60
2022-10-08T15:14:37.987Z,5.45
2022-10-08T15:17:06.836Z,6.15
2022-10-08T15:19:34.910Z,5.13
2022-10-08T15:22:02.943Z,8.95
2022-10-08T15:24:31.238Z,9.15
2022-10-08T15:26:59.309Z,6.63
2022-10-08T15:29:28.874Z,8.07
2022-10-08T15:31:57.073Z,5.97
2022-10-08T15:34:25.150Z,8.02
2022-10-08T15:36:55.321Z,3.95
2022-10-08T15:39:23.875Z,6.78
2022-10-08T15:41:53.220Z,8.50
2022-10-08T15:44:23.135Z,6.72
2022-10-08T15:46:59.627Z,4.68
2022-10-08T15:49:31.758Z,9.20
2022-10-08T15:52:00.196Z,7.53
2022-10-08T15:54:28.300Z,11.80
2022-10-08T15:56:58.845Z,9.70
2022-10-08T15:59:26.966Z,9.05
2022-10-08T16:01:56.454Z,11.85
2022-10-08T16:04:24.643Z,7.57
2022-10-08T16:06:52.968Z,4.50
2022-10-08T16:09:26.880Z,8.55
2022-10-08T16:11:55.299Z,7.72
2022-10-08T16:14:27.589Z,6.60
2022-10-08T16:16:57.045Z,9.75
2022-10-08T16:19:27.195Z,6.53
2022-10-08T16:21:56.941Z,7.53
2022-10-08T16:24:25.096Z,9.18
2022-10-08T16:26:53.193Z,6.72
2022-10-08T16:29:21.491Z,8.07
2022-10-08T16:31:49.748Z,6.72
2022-10-08T16:34:21.514Z,5.05
2022-10-08T16:36:50.504Z,7.03
2022-10-08T16:39:21.616Z,6.15
2022-10-08T16:41:50.284Z,6.88
2022-10-08T16:44:20.897Z,10.07
2022-10-08T16:46:50.945Z,7.00
2022-10-08T16:49:25.508Z,7.97
2022-10-08T16:51:55.240Z,6.00
2022-10-08T16:54:23.588Z,6.72
2022-10-08T16:56:51.822Z,7.18
2022-10-08T16:59:21.454Z,7.40
2022-10-08T17:01:51.897Z,6.05
2022-10-08T17:04:23.554Z,6.18
2022-10-08T17:06:52.474Z,10.65
2022-10-08T17:09:20.645Z,7.22
2022-10-08T17:11:48.923Z,9.63
2022-10-08T17:14:17.085Z,6.78
2022-10-08T17:16:45.853Z,8.52
2022-10-08T17:19:14.588Z,7.22
2022-10-08T17:21:44.083Z,8.30
2022-10-08T17:24:12.959Z,7.35
2022-10-08T17:26:41.865Z,5.57
2022-10-08T17:29:11.327Z,7.80
2022-10-08T17:31:39.958Z,10.02
2022-10-08T17:34:09.472Z,5.65
2022-10-08T17:36:39.917Z,9.23
2022-10-08T17:39:12.783Z,9.93
2022-10-08T17:41:43.180Z,7.40
2022-10-08T17:44:11.632Z,12.18
2022-10-08T17:46:42.850Z,15.52
2022-10-08T17:49:11.185Z,18.65
2022-10-08T17:51:40.058Z,17.48
2022-10-08T17:54:13.054Z,18.08
2022-10-08T17:56:41.318Z,14.43
2022-10-08T17:59:13.149Z,13.23
2022-10-08T18:01:44.809Z,13.27
2022-10-08T18:04:15.491Z,10.68
2022-10-08T18:06:46.242Z,11.70
2022-10-08T18:09:18.425Z,13.00
2022-10-08T18:11:49.061Z,12.38
2022-10-08T18:14:17.471Z,11.18
2022-10-08T18:16:48.185Z,10.52
2022-10-08T18:19:17.527Z,10.18
2022-10-08T18:21:45.537Z,8.25
2022-10-08T18:24:15.410Z,8.98
2022-10-08T18:26:43.611Z,10.98
2022-10-08T18:29:13.720Z,9.27
2022-10-08T18:31:43.331Z,11.45
2022-10-08T18:34:15.258Z,8.93
2022-10-08T18:36:45.822Z,13.23
2022-10-08T18:39:17.121Z,11.73
2022-10-08T18:41:47.122Z,13.00
2022-10-08T18:44:17.756Z,12.45
2022-10-08T18:46:46.003Z,13.93
2022-10-08T18:49:15.327Z,16.40
2022-10-08T18:51:43.693Z,19.92
2022-10-08T18:54:15.543Z,20.52
2022-10-08T18:56:43.910Z,18.13
2022-10-08T18:59:14.993Z,18.45
2022-10-08T19:01:44.750Z,14.50
2022-10-08T19:04:17.854Z,17.52
2022-10-08T19:06:47.717Z,16.15
2022-10-08T19:09:17.355Z,21.10
2022-10-08T19:11:48.129Z,17.73
2022-10-08T19:14:18.210Z,20.02
2022-10-08T19:16:46.617Z,18.75
2022-10-08T19:19:16.725Z,14.65
2022-10-08T19:21:45.041Z,12.50
2022-10-08T19:24:15.921Z,14.48
2022-10-08T19:26:45.819Z,14.18
2022-10-08T19:29:16.914Z,10.63
2022-10-08T19:31:47.737Z,11.85
2022-10-08T19:34:18.689Z,11.10
2022-10-08T19:36:47.508Z,12.57
2022-10-08T19:39:17.395Z,11.63
2022-10-08T19:41:47.328Z,13.45
2022-10-08T19:44:16.593Z,14.45
2022-10-08T19:46:45.205Z,14.07
2022-10-08T19:49:14.233Z,13.50
2022-10-08T19:51:42.387Z,13.13
2022-10-08T19:54:11.004Z,15.20
2022-10-08T19:56:44.459Z,18.23
2022-10-08T19:59:14.567Z,12.38
2022-10-08T20:01:44.932Z,13.20
2022-10-08T20:04:14.128Z,11.75
2022-10-08T20:06:43.333Z,17.20
2022-10-08T20:09:13.090Z,13.85
2022-10-08T20:11:42.097Z,17.10
2022-10-08T20:14:10.608Z,23.05
2022-10-08T20:16:41.581Z,21.58
2022-10-08T20:19:16.771Z,21.65
2022-10-08T20:21:45.216Z,29.02
2022-10-08T20:24:13.951Z,26.17
2022-10-08T20:26:44.080Z,29.42
2022-10-08T20:29:14.188Z,25.90
2022-10-08T20:31:46.085Z,20.58
2022-10-08T20:34:17.586Z,14.98
2022-10-08T20:36:46.597Z,16.17
2022-10-08T20:39:15.975Z,17.63
2022-10-08T20:41:44.449Z,15.07
2022-10-08T20:44:12.637Z,19.45
2022-10-08T20:46:40.990Z,16.70
2022-10-08T20:49:12.023Z,15.82
2022-10-08T20:51:40.886Z,15.02
2022-10-08T20:54:11.938Z,13.73
2022-10-08T20:56:41.128Z,14.77
2022-10-08T20:59:10.185Z,15.98
2022-10-08T21:01:39.535Z,15.45
2022-10-08T21:04:08.743Z,16.55
2022-10-08T21:06:42.146Z,16.38
2022-10-08T21:09:10.830Z,15.35
2022-10-08T21:11:39.655Z,18.25
2022-10-08T21:14:09.417Z,15.88
2022-10-08T21:16:40.139Z,15.48
2022-10-08T21:19:11.271Z,15.35
2022-10-08T21:21:41.761Z,16.63
2022-10-08T21:24:10.587Z,16.33
2022-10-08T21:26:40.216Z,15.82
2022-10-08T21:29:10.236Z,14.88
2022-10-08T21:31:40.770Z,12.13
2022-10-08T21:34:09.836Z,14.57
2022-10-08T21:36:40.789Z,14.68
2022-10-08T21:39:11.965Z,12.13
2022-10-08T21:41:40.037Z,15.02
2022-10-08T21:44:09.712Z,16.70
2022-10-08T21:46:39.956Z,14.77
2022-10-08T21:49:09.927Z,11.13
2022-10-08T21:51:38.058Z,12.95
2022-10-08T21:54:08.108Z,14.40
2022-10-08T21:56:38.890Z,12.88
2022-10-08T21:59:08.723Z,13.05
2022-10-08T22:01:39.267Z,13.80
2022-10-08T22:04:09.419Z,16.33
2022-10-08T22:06:40.049Z,13.55
2022-10-08T22:09:12.621Z,10.82
2022-10-08T22:11:41.315Z,10.63
2022-10-08T22:14:09.791Z,10.63
2022-10-08T22:16:38.506Z,12.95
2022-10-08T22:19:06.984Z,13.85
2022-10-08T22:21:35.944Z,11.60
2022-10-08T22:24:04.305Z,13.23
2022-10-08T22:26:35.895Z,14.25
2022-10-08T22:29:04.543Z,12.18
2022-10-08T22:31:33.008Z,12.88
2022-10-08T22:34:01.185Z,10.85
2022-10-08T22:36:31.174Z,13.43
2022-10-08T22:39:00.034Z,12.60
2022-10-08T22:41:29.546Z,12.18
2022-10-08T22:43:59.722Z,11.65
2022-10-08T22:46:30.151Z,12.23
2022-10-08T22:48:59.251Z,12.60
2022-10-08T22:51:27.603Z,11.90
2022-10-08T22:53:55.942Z,12.00
2022-10-08T22:56:25.458Z,13.05
2022-10-08T22:58:53.492Z,11.38
2022-10-08T23:01:25.242Z,10.00
2022-10-08T23:03:54.260Z,12.07
2022-10-08T23:06:24.208Z,10.90
2022-10-08T23:08:54.982Z,11.88
2022-10-08T23:11:23.271Z,12.88
2022-10-08T23:13:52.210Z,12.32
2022-10-08T23:16:22.447Z,10.85
2022-10-08T23:18:54.483Z,14.32
2022-10-08T23:21:23.005Z,11.40
2022-10-08T23:23:51.403Z,12.07
2022-10-08T23:26:19.686Z,15.85
2022-10-08T23:28:51.971Z,11.00
2022-10-08T23:31:25.463Z,12.93
2022-10-08T23:33:55.209Z,14.77
2022-10-08T23:36:24.868Z,15.45
2022-10-08T23:38:53.227Z,16.67
2022-10-08T23:41:21.476Z,13.10
2022-10-08T23:43:51.650Z,13.98
2022-10-08T23:46:22.453Z,14.65
2022-10-08T23:48:52.799Z,11.48
2022-10-08T23:51:22.367Z,10.90
2022-10-08T23:53:51.974Z,14.73
2022-10-08T23:56:20.382Z,13.00
2022-10-08T23:58:48.890Z,18.08
